Time;durP1;ratioP1;P1;durP2;ratioP2;P2;SDS_P1;SDS_P2;PMS_P1;PMS_P2;Temp;Humidity;BMP_temperature;BMP_pressure;BME280_temperature;BME280_humidity;BME280_pressure;Samples;Min_cycle;Max_cycle;Signal;HPM_P1;HPM_P2
2021/06/01 00:03:45;;;;;;;20.73;14.88;;;8.30;99.90;;;;;;21085882;28;20044;-53
2021/06/01 00:13:47;;;;;;;20.15;14.68;;;8.40;99.90;;;;;;21084736;28;20036;-48
2021/06/01 00:23:51;;;;;;;18.52;14.13;;;8.50;99.90;;;;;;21084050;28;20051;-48
2021/06/01 00:33:53;;;;;;;22.05;14.70;;;8.50;99.90;;;;;;21084084;28;20052;-48
2021/06/01 00:43:55;;;;;;;19.23;13.75;;;8.60;99.90;;;;;;21082543;28;20032;-49
2021/06/01 00:53:57;;;;;;;19.83;14.43;;;8.60;99.90;;;;;;21081925;28;20052;-48
2021/06/01 01:04:00;;;;;;;17.17;13.40;;;8.60;99.90;;;;;;21081234;28;20032;-49
2021/06/01 01:14:15;;;;;;;20.17;13.77;;;8.70;99.90;;;;;;21079777;28;20097;-48
2021/06/01 01:24:44;;;;;;;19.92;15.32;;;8.70;99.90;;;;;;21079416;28;20056;-48
2021/06/01 01:34:47;;;;;;;20.35;15.18;;;8.80;99.90;;;;;;21079683;28;20040;-48
2021/06/01 01:44:51;;;;;;;19.55;15.60;;;8.90;99.90;;;;;;21077052;28;20039;-48
2021/06/01 01:54:56;;;;;;;20.48;15.30;;;9.00;99.90;;;;;;21076884;28;20074;-48
2021/06/01 02:04:59;;;;;;;18.85;14.27;;;9.30;99.90;;;;;;21075987;28;20040;-49
2021/06/01 02:15:02;;;;;;;18.42;13.82;;;9.20;99.90;;;;;;21073836;28;20555;-48
2021/06/01 02:25:14;;;;;;;15.73;11.70;;;9.20;99.90;;;;;;21074479;28;20071;-48
2021/06/01 02:35:23;;;;;;;19.13;13.07;;;9.20;99.90;;;;;;21073610;28;20397;-49
2021/06/01 02:45:25;;;;;;;16.25;12.48;;;9.10;99.90;;;;;;21074005;28;20040;-48
2021/06/01 02:55:27;;;;;;;15.32;11.23;;;9.00;99.90;;;;;;21072444;28;20048;-48
2021/06/01 03:05:30;;;;;;;15.18;10.98;;;9.00;99.90;;;;;;21072709;28;20056;-49
2021/06/01 03:15:32;;;;;;;13.48;9.82;;;9.10;99.90;;;;;;21072575;28;20051;-50
2021/06/01 03:25:35;;;;;;;13.82;9.57;;;9.10;99.90;;;;;;21072594;28;20432;-48
2021/06/01 03:35:37;;;;;;;14.27;9.77;;;9.30;99.90;;;;;;21071201;28;20505;-48
2021/06/01 03:45:38;;;;;;;13.70;9.82;;;9.30;99.90;;;;;;21071598;28;20044;-48
2021/06/01 03:55:40;;;;;;;14.95;10.10;;;9.20;99.90;;;;;;21070735;28;20052;-47
2021/06/01 04:05:42;;;;;;;13.82;9.65;;;9.00;99.90;;;;;;21071449;28;20040;-48
2021/06/01 04:15:44;;;;;;;12.70;8.93;;;9.00;99.90;;;;;;21071009;28;20094;-48
2021/06/01 04:25:47;;;;;;;15.77;10.52;;;9.10;99.90;;;;;;21079137;28;20069;-48
2021/06/01 04:35:49;;;;;;;10.60;8.98;;;9.30;99.90;;;;;;21084254;28;20051;-48
2021/06/01 04:45:51;;;;;;;11.32;8.75;;;9.40;99.90;;;;;;21082399;28;20146;-48
2021/06/01 04:55:53;;;;;;;12.63;10.30;;;9.70;99.90;;;;;;21081683;28;20048;-49
2021/06/01 05:05:57;;;;;;;13.35;9.43;;;10.10;99.90;;;;;;21079655;28;20060;-49
2021/06/01 05:15:59;;;;;;;13.30;9.75;;;10.60;99.90;;;;;;21080090;28;20489;-49
2021/06/01 05:26:05;;;;;;;13.02;9.40;;;11.10;99.90;;;;;;21080971;28;20101;-47
2021/06/01 05:36:11;;;;;;;12.60;9.65;;;11.50;99.90;;;;;;21077977;28;20028;-48
2021/06/01 05:46:13;;;;;;;11.90;8.70;;;11.70;99.90;;;;;;21078322;28;20089;-55
2021/06/01 05:56:16;;;;;;;13.02;8.30;;;11.90;99.90;;;;;;21077240;28;20052;-52
2021/06/01 06:06:20;;;;;;;12.63;8.60;;;11.80;99.90;;;;;;21076239;28;20097;-48
2021/06/01 06:16:22;;;;;;;11.43;9.00;;;11.90;99.90;;;;;;21073728;28;20069;-48
2021/06/01 06:26:25;;;;;;;10.70;8.15;;;12.20;99.90;;;;;;21075004;28;20101;-49
2021/06/01 06:36:28;;;;;;;10.35;7.28;;;13.20;99.90;;;;;;21073992;28;20180;-50
2021/06/01 06:46:37;;;;;;;8.57;6.25;;;14.30;99.90;;;;;;21072055;28;20052;-47
2021/06/01 06:56:38;;;;;;;;;;;18.50;99.90;;;;;;21073210;28;20040;-51
2021/06/01 07:06:40;;;;;;;7.20;6.50;;;23.10;92.60;;;;;;21073069;28;19953;-47
2021/06/01 07:16:43;;;;;;;7.30;6.60;;;23.20;76.60;;;;;;21071783;28;20051;-47
2021/06/01 07:26:45;;;;;;;7.97;7.18;;;20.20;83.20;;;;;;21072370;28;20044;-47
2021/06/01 07:36:47;;;;;;;7.68;6.10;;;18.50;91.00;;;;;;21071567;28;20052;-46
2021/06/01 07:46:50;;;;;;;9.93;6.70;;;18.00;93.10;;;;;;21070747;28;20048;-47
2021/06/01 07:56:52;;;;;;;7.32;6.15;;;17.90;91.60;;;;;;21073593;28;20081;-47
2021/06/01 08:06:54;;;;;;;10.98;6.60;;;16.70;95.20;;;;;;21087209;28;20036;-46
2021/06/01 08:16:57;;;;;;;7.85;6.22;;;15.90;97.60;;;;;;21084382;28;20077;-48
2021/06/01 08:26:59;;;;;;;9.07;6.88;;;16.30;98.80;;;;;;21083980;28;20105;-46
2021/06/01 08:37:00;;;;;;;9.63;6.88;;;16.30;97.50;;;;;;21081503;28;20051;-47
2021/06/01 08:47:03;;;;;;;7.65;6.20;;;16.60;98.00;;;;;;21083774;28;20036;-47
2021/06/01 08:57:07;;;;;;;8.23;6.32;;;16.90;96.70;;;;;;21082698;28;20078;-47
2021/06/01 09:07:20;;;;;;;9.07;7.03;;;17.40;96.70;;;;;;21079724;28;20044;-47
2021/06/01 09:27:51;;;;;;;8.43;6.85;;;18.10;96.80;;;;;;21080874;28;20055;-46
2021/06/01 09:37:58;;;;;;;7.70;6.60;;;18.30;94.80;;;;;;21079092;28;20040;-46
2021/06/01 09:48:05;;;;;;;8.43;6.78;;;17.10;96.70;;;;;;21076099;28;20040;-47
2021/06/01 09:58:12;;;;;;;7.70;6.68;;;16.00;99.00;;;;;;21077085;28;20097;-48
2021/06/01 10:08:16;;;;;;;7.30;6.47;;;16.70;99.30;;;;;;21073687;28;20215;-47
2021/06/01 10:18:19;;;;;;;9.80;7.47;;;19.40;95.40;;;;;;21074427;28;20048;-47
2021/06/01 10:28:28;;;;;;;7.70;6.90;;;20.00;93.60;;;;;;21075057;28;20044;-47
2021/06/01 10:59:17;;;;;;;11.45;7.50;;;21.20;89.10;;;;;;21072062;28;20122;-47
2021/06/01 11:09:31;;;;;;;9.50;8.48;;;21.50;88.80;;;;;;21069765;28;20148;-47
2021/06/01 11:20:05;;;;;;;10.82;8.93;;;20.40;87.60;;;;;;21071632;28;20405;-48
2021/06/01 11:51:21;;;;;;;12.48;10.20;;;20.70;91.30;;;;;;21087501;28;20105;-47
2021/06/01 12:12:28;;;;;;;12.52;11.23;;;21.30;89.50;;;;;;21086928;28;20044;-47
2021/06/01 12:22:08;;;;;;;14.18;11.60;;;21.90;87.50;;;;;;21078395;28;20043;-47
2021/06/01 13:56:03;;;;;;;7.47;6.07;;;25.00;78.00;;;;;;21077838;28;20036;-47
2021/06/01 16:11:20;;;;;;;15.00;9.52;;;16.70;93.80;;;;;;21154719;28;20081;-47
2021/06/01 16:30:55;;;;;;;13.13;10.70;;;15.60;95.90;;;;;;21168170;28;20028;-47
2021/06/01 17:11:53;;;;;;;14.10;11.40;;;15.60;94.20;;;;;;21164477;28;20485;-46
2021/06/01 17:22:15;;;;;;;15.68;12.00;;;14.50;96.30;;;;;;21164577;28;20039;-46
2021/06/01 17:42:21;;;;;;;17.58;11.25;;;13.40;99.90;;;;;;21159940;28;20040;-46
2021/06/01 17:52:33;;;;;;;14.63;10.88;;;13.60;99.90;;;;;;21161084;28;20180;-46
2021/06/01 18:02:39;;;;;;;18.10;10.18;;;13.80;99.90;;;;;;21160927;28;20401;-46
2021/06/01 19:25:12;;;;;;;14.95;11.07;;;9.50;99.90;;;;;;21071108;28;20040;-48
2021/06/01 19:55:57;;;;;;;13.38;10.35;;;9.10;99.90;;;;;;21079728;28;19922;-47
2021/06/01 20:06:00;;;;;;;12.18;9.63;;;9.50;99.90;;;;;;21085416;28;20439;-48
2021/06/01 20:16:03;;;;;;;16.35;9.10;;;9.70;99.90;;;;;;21067695;28;20101;-50
2021/06/01 20:26:06;;;;;;;12.90;9.95;;;9.60;99.90;;;;;;21084486;28;20475;-48
2021/06/01 20:36:09;;;;;;;17.02;11.05;;;9.20;99.90;;;;;;21048236;28;20044;-48
2021/06/01 20:46:11;;;;;;;15.95;11.55;;;8.80;99.90;;;;;;21100342;28;20065;-49
2021/06/01 20:56:13;;;;;;;19.45;11.88;;;8.60;99.90;;;;;;21148364;28;20044;-47
2021/06/01 21:06:19;;;;;;;17.30;12.02;;;8.30;99.90;;;;;;21164266;28;20069;-47
2021/06/01 21:16:23;;;;;;;17.45;12.10;;;8.00;99.90;;;;;;21164701;28;20047;-48
2021/06/01 21:26:25;;;;;;;18.75;12.63;;;7.80;99.90;;;;;;21164809;28;20044;-48
2021/06/01 21:36:28;;;;;;;18.10;13.07;;;7.70;99.90;;;;;;21163984;28;20505;-48
2021/06/01 21:46:32;;;;;;;18.38;12.98;;;7.80;99.90;;;;;;21160364;28;20044;-50
2021/06/01 21:56:35;;;;;;;14.40;10.57;;;8.20;99.90;;;;;;21161193;28;20104;-49
2021/06/01 22:06:38;;;;;;;16.45;11.32;;;8.50;99.90;;;;;;21147023;28;20387;-48
2021/06/01 22:16:45;;;;;;;15.23;11.38;;;8.40;99.90;;;;;;21075420;28;20048;-47
2021/06/01 22:26:47;;;;;;;18.05;12.60;;;8.40;99.90;;;;;;21074822;28;20409;-47
2021/06/01 22:36:50;;;;;;;19.67;13.65;;;8.40;99.90;;;;;;21075110;28;20040;-47
2021/06/01 22:46:54;;;;;;;18.60;12.60;;;8.10;99.90;;;;;;21098443;28;20424;-48
2021/06/01 22:56:56;;;;;;;23.20;14.75;;;8.10;99.90;;;;;;21156699;28;20055;-48
2021/06/01 23:07:02;;;;;;;21.23;13.88;;;7.90;99.90;;;;;;21157007;28;20097;-48
2021/06/01 23:17:07;;;;;;;20.75;14.88;;;8.00;99.90;;;;;;21155955;28;20492;-48
2021/06/01 23:27:09;;;;;;;23.65;15.98;;;7.80;99.90;;;;;;21158933;28;20043;-49
2021/06/01 23:37:12;;;;;;;25.35;16.33;;;7.40;99.90;;;;;;21173761;28;20097;-47
2021/06/01 23:47:20;;;;;;;24.38;16.27;;;7.20;99.90;;;;;;21172617;28;20077;-47
2021/06/01 23:57:22;;;;;;;26.55;17.70;;;7.10;99.90;;;;;;21172142;28;20084;-47
